sensor_id;sensor_type;location;lat;lon;timestamp;P1;durP1;ratioP1;P2;durP2;ratioP2
46561;SDS011;32289;42.688;23.330;2022-11-04T00:00:07;18.05;;;5.97;;
46561;SDS011;32289;42.688;23.330;2022-11-04T00:03:48;12.88;;;5.75;;
46561;SDS011;32289;42.688;23.330;2022-11-04T00:07:29;17.50;;;5.30;;
46561;SDS011;32289;42.688;23.330;2022-11-04T00:11:28;16.87;;;5.57;;
46561;SDS011;32289;42.688;23.330;2022-11-04T00:15:27;14.40;;;5.47;;
46561;SDS011;32289;42.688;23.330;2022-11-04T00:19:27;14.65;;;5.00;;
46561;SDS011;32289;42.688;23.330;2022-11-04T00:23:07;16.15;;;5.15;;
46561;SDS011;32289;42.688;23.330;2022-11-04T00:27:10;11.43;;;5.47;;
46561;SDS011;32289;42.688;23.330;2022-11-04T00:31:12;14.90;;;4.82;;
46561;SDS011;32289;42.688;23.330;2022-11-04T00:35:14;10.43;;;4.97;;
46561;SDS011;32289;42.688;23.330;2022-11-04T00:38:55;17.05;;;5.57;;
46561;SDS011;32289;42.688;23.330;2022-11-04T00:42:36;11.98;;;4.90;;
46561;SDS011;32289;42.688;23.330;2022-11-04T00:46:17;15.48;;;5.03;;
46561;SDS011;32289;42.688;23.330;2022-11-04T00:49:58;15.45;;;6.45;;
46561;SDS011;32289;42.688;23.330;2022-11-04T00:53:38;12.18;;;5.53;;
46561;SDS011;32289;42.688;23.330;2022-11-04T00:57:19;12.20;;;4.80;;
46561;SDS011;32289;42.688;23.330;2022-11-04T01:01:00;13.40;;;4.63;;
46561;SDS011;32289;42.688;23.330;2022-11-04T01:04:46;12.23;;;5.25;;
46561;SDS011;32289;42.688;23.330;2022-11-04T01:08:27;13.38;;;5.38;;
46561;SDS011;32289;42.688;23.330;2022-11-04T01:12:07;17.77;;;6.03;;
46561;SDS011;32289;42.688;23.330;2022-11-04T01:15:48;10.60;;;5.15;;
46561;SDS011;32289;42.688;23.330;2022-11-04T01:19:29;14.40;;;4.97;;
46561;SDS011;32289;42.688;23.330;2022-11-04T01:23:09;12.63;;;4.93;;
46561;SDS011;32289;42.688;23.330;2022-11-04T01:26:50;12.20;;;6.30;;
46561;SDS011;32289;42.688;23.330;2022-11-04T01:30:31;12.82;;;4.82;;
46561;SDS011;32289;42.688;23.330;2022-11-04T01:34:12;12.77;;;5.18;;
46561;SDS011;32289;42.688;23.330;2022-11-04T01:37:53;14.48;;;5.25;;
46561;SDS011;32289;42.688;23.330;2022-11-04T01:41:33;13.60;;;5.43;;
46561;SDS011;32289;42.688;23.330;2022-11-04T01:45:15;9.07;;;4.18;;
46561;SDS011;32289;42.688;23.330;2022-11-04T01:49:41;14.77;;;4.35;;
46561;SDS011;32289;42.688;23.330;2022-11-04T01:53:11;11.20;;;4.45;;
46561;SDS011;32289;42.688;23.330;2022-11-04T01:57:06;13.32;;;5.35;;
46561;SDS011;32289;42.688;23.330;2022-11-04T02:00:52;14.48;;;5.63;;
46561;SDS011;32289;42.688;23.330;2022-11-04T02:04:33;11.00;;;4.72;;
46561;SDS011;32289;42.688;23.330;2022-11-04T02:08:14;8.45;;;4.35;;
46561;SDS011;32289;42.688;23.330;2022-11-04T02:11:57;12.70;;;4.72;;
46561;SDS011;32289;42.688;23.330;2022-11-04T02:16:07;11.90;;;5.00;;
46561;SDS011;32289;42.688;23.330;2022-11-04T02:20:24;11.60;;;4.65;;
46561;SDS011;32289;42.688;23.330;2022-11-04T02:44:34;11.85;;;5.03;;
46561;SDS011;32289;42.688;23.330;2022-11-04T02:52:54;9.48;;;4.65;;
46561;SDS011;32289;42.688;23.330;2022-11-04T02:56:40;12.18;;;4.57;;
46561;SDS011;32289;42.688;23.330;2022-11-04T03:00:24;12.18;;;4.72;;
46561;SDS011;32289;42.688;23.330;2022-11-04T03:04:08;17.73;;;5.10;;
46561;SDS011;32289;42.688;23.330;2022-11-04T03:07:54;17.33;;;6.47;;
46561;SDS011;32289;42.688;23.330;2022-11-04T03:11:39;15.93;;;6.15;;
46561;SDS011;32289;42.688;23.330;2022-11-04T03:15:25;10.20;;;4.22;;
46561;SDS011;32289;42.688;23.330;2022-11-04T03:23:11;18.48;;;5.72;;
46561;SDS011;32289;42.688;23.330;2022-11-04T03:26:59;15.35;;;5.22;;
46561;SDS011;32289;42.688;23.330;2022-11-04T03:30:47;9.93;;;5.18;;
46561;SDS011;32289;42.688;23.330;2022-11-04T03:34:30;9.88;;;5.10;;
46561;SDS011;32289;42.688;23.330;2022-11-04T03:38:12;15.73;;;5.07;;
46561;SDS011;32289;42.688;23.330;2022-11-04T03:41:54;13.98;;;5.18;;
46561;SDS011;32289;42.688;23.330;2022-11-04T03:45:36;19.17;;;5.40;;
46561;SDS011;32289;42.688;23.330;2022-11-04T03:49:21;15.95;;;5.30;;
46561;SDS011;32289;42.688;23.330;2022-11-04T03:53:03;8.55;;;4.85;;
46561;SDS011;32289;42.688;23.330;2022-11-04T03:56:48;12.23;;;5.20;;
46561;SDS011;32289;42.688;23.330;2022-11-04T04:00:48;14.75;;;6.03;;
46561;SDS011;32289;42.688;23.330;2022-11-04T04:04:38;11.48;;;4.72;;
46561;SDS011;32289;42.688;23.330;2022-11-04T04:08:37;14.77;;;6.97;;
46561;SDS011;32289;42.688;23.330;2022-11-04T04:16:16;14.02;;;5.80;;
46561;SDS011;32289;42.688;23.330;2022-11-04T04:20:32;13.18;;;5.85;;
46561;SDS011;32289;42.688;23.330;2022-11-04T04:24:17;11.80;;;4.93;;
46561;SDS011;32289;42.688;23.330;2022-11-04T04:28:19;12.15;;;5.85;;
46561;SDS011;32289;42.688;23.330;2022-11-04T04:32:01;10.23;;;5.85;;
46561;SDS011;32289;42.688;23.330;2022-11-04T04:35:45;13.00;;;5.90;;
46561;SDS011;32289;42.688;23.330;2022-11-04T04:39:36;16.83;;;6.75;;
46561;SDS011;32289;42.688;23.330;2022-11-04T04:43:40;10.23;;;5.32;;
46561;SDS011;32289;42.688;23.330;2022-11-04T04:47:42;17.92;;;6.45;;
46561;SDS011;32289;42.688;23.330;2022-11-04T04:51:24;24.85;;;5.50;;
46561;SDS011;32289;42.688;23.330;2022-11-04T04:55:05;15.02;;;6.57;;
46561;SDS011;32289;42.688;23.330;2022-11-04T04:58:46;13.57;;;6.18;;
46561;SDS011;32289;42.688;23.330;2022-11-04T05:02:27;13.45;;;5.65;;
46561;SDS011;32289;42.688;23.330;2022-11-04T05:06:08;11.45;;;6.68;;
46561;SDS011;32289;42.688;23.330;2022-11-04T05:09:48;11.43;;;6.13;;
46561;SDS011;32289;42.688;23.330;2022-11-04T05:13:29;16.30;;;6.70;;
46561;SDS011;32289;42.688;23.330;2022-11-04T05:17:10;15.90;;;7.40;;
46561;SDS011;32289;42.688;23.330;2022-11-04T05:20:51;13.82;;;6.78;;
46561;SDS011;32289;42.688;23.330;2022-11-04T05:24:32;18.50;;;7.57;;
46561;SDS011;32289;42.688;23.330;2022-11-04T05:28:12;16.38;;;5.72;;
46561;SDS011;32289;42.688;23.330;2022-11-04T05:31:53;11.13;;;5.93;;
46561;SDS011;32289;42.688;23.330;2022-11-04T05:35:34;17.42;;;6.35;;
46561;SDS011;32289;42.688;23.330;2022-11-04T05:39:15;25.20;;;7.85;;
46561;SDS011;32289;42.688;23.330;2022-11-04T05:42:56;13.60;;;6.95;;
46561;SDS011;32289;42.688;23.330;2022-11-04T05:46:38;21.05;;;7.55;;
46561;SDS011;32289;42.688;23.330;2022-11-04T05:50:19;23.08;;;6.82;;
46561;SDS011;32289;42.688;23.330;2022-11-04T05:54:00;18.95;;;6.82;;
46561;SDS011;32289;42.688;23.330;2022-11-04T05:57:41;15.80;;;6.78;;
46561;SDS011;32289;42.688;23.330;2022-11-04T06:01:26;13.02;;;6.18;;
46561;SDS011;32289;42.688;23.330;2022-11-04T06:05:08;16.75;;;7.40;;
46561;SDS011;32289;42.688;23.330;2022-11-04T06:08:49;19.50;;;7.45;;
46561;SDS011;32289;42.688;23.330;2022-11-04T06:12:30;13.93;;;7.47;;
46561;SDS011;32289;42.688;23.330;2022-11-04T06:16:11;15.98;;;7.28;;
46561;SDS011;32289;42.688;23.330;2022-11-04T06:19:52;17.08;;;7.18;;
46561;SDS011;32289;42.688;23.330;2022-11-04T06:23:33;13.65;;;7.38;;
46561;SDS011;32289;42.688;23.330;2022-11-04T06:27:13;13.55;;;7.85;;
46561;SDS011;32289;42.688;23.330;2022-11-04T06:30:56;17.08;;;6.43;;
46561;SDS011;32289;42.688;23.330;2022-11-04T06:34:37;16.85;;;7.80;;
46561;SDS011;32289;42.688;23.330;2022-11-04T06:38:19;18.65;;;8.50;;
46561;SDS011;32289;42.688;23.330;2022-11-04T06:41:59;14.35;;;7.88;;
46561;SDS011;32289;42.688;23.330;2022-11-04T06:45:40;16.75;;;7.97;;
46561;SDS011;32289;42.688;23.330;2022-11-04T06:49:21;21.38;;;9.27;;
46561;SDS011;32289;42.688;23.330;2022-11-04T06:53:02;20.90;;;9.05;;
46561;SDS011;32289;42.688;23.330;2022-11-04T06:56:43;19.75;;;9.38;;
46561;SDS011;32289;42.688;23.330;2022-11-04T07:00:24;17.90;;;9.18;;
46561;SDS011;32289;42.688;23.330;2022-11-04T07:04:05;19.77;;;8.70;;
46561;SDS011;32289;42.688;23.330;2022-11-04T07:07:46;17.98;;;9.70;;
46561;SDS011;32289;42.688;23.330;2022-11-04T07:11:28;25.23;;;8.85;;
46561;SDS011;32289;42.688;23.330;2022-11-04T07:15:10;19.42;;;9.20;;
46561;SDS011;32289;42.688;23.330;2022-11-04T07:18:52;29.70;;;9.60;;
46561;SDS011;32289;42.688;23.330;2022-11-04T07:22:34;24.38;;;10.05;;
46561;SDS011;32289;42.688;23.330;2022-11-04T07:26:17;26.60;;;10.38;;
46561;SDS011;32289;42.688;23.330;2022-11-04T07:30:02;30.25;;;11.40;;
46561;SDS011;32289;42.688;23.330;2022-11-04T07:34:04;27.95;;;10.88;;
46561;SDS011;32289;42.688;23.330;2022-11-04T07:37:47;23.55;;;10.55;;
46561;SDS011;32289;42.688;23.330;2022-11-04T07:41:28;21.48;;;10.13;;
46561;SDS011;32289;42.688;23.330;2022-11-04T07:45:09;22.92;;;10.75;;
46561;SDS011;32289;42.688;23.330;2022-11-04T07:48:50;20.65;;;9.82;;
46561;SDS011;32289;42.688;23.330;2022-11-04T07:52:30;23.85;;;10.18;;
46561;SDS011;32289;42.688;23.330;2022-11-04T07:56:14;21.45;;;10.25;;
46561;SDS011;32289;42.688;23.330;2022-11-04T07:59:55;23.58;;;10.75;;
46561;SDS011;32289;42.688;23.330;2022-11-04T08:03:38;22.48;;;10.73;;
46561;SDS011;32289;42.688;23.330;2022-11-04T08:07:22;24.30;;;9.95;;
46561;SDS011;32289;42.688;23.330;2022-11-04T08:11:13;19.90;;;9.68;;
46561;SDS011;32289;42.688;23.330;2022-11-04T08:14:56;19.75;;;9.82;;
46561;SDS011;32289;42.688;23.330;2022-11-04T08:18:37;16.80;;;9.32;;
46561;SDS011;32289;42.688;23.330;2022-11-04T08:22:19;24.23;;;11.00;;
46561;SDS011;32289;42.688;23.330;2022-11-04T08:26:00;19.98;;;10.50;;
46561;SDS011;32289;42.688;23.330;2022-11-04T08:29:40;19.00;;;9.63;;
46561;SDS011;32289;42.688;23.330;2022-11-04T08:33:24;20.40;;;8.93;;
46561;SDS011;32289;42.688;23.330;2022-11-04T08:37:06;17.33;;;9.50;;
46561;SDS011;32289;42.688;23.330;2022-11-04T08:40:47;21.33;;;10.45;;
46561;SDS011;32289;42.688;23.330;2022-11-04T08:44:28;18.90;;;9.75;;
46561;SDS011;32289;42.688;23.330;2022-11-04T08:48:08;24.88;;;10.52;;
46561;SDS011;32289;42.688;23.330;2022-11-04T08:51:49;15.60;;;9.35;;
46561;SDS011;32289;42.688;23.330;2022-11-04T08:55:36;18.70;;;9.80;;
46561;SDS011;32289;42.688;23.330;2022-11-04T08:59:19;18.88;;;9.77;;
46561;SDS011;32289;42.688;23.330;2022-11-04T09:03:00;15.38;;;9.38;;
46561;SDS011;32289;42.688;23.330;2022-11-04T09:06:41;15.88;;;8.73;;
46561;SDS011;32289;42.688;23.330;2022-11-04T09:10:25;19.25;;;9.65;;
46561;SDS011;32289;42.688;23.330;2022-11-04T09:14:06;14.95;;;9.25;;
46561;SDS011;32289;42.688;23.330;2022-11-04T09:17:47;14.52;;;8.90;;
46561;SDS011;32289;42.688;23.330;2022-11-04T09:21:28;17.48;;;9.05;;
46561;SDS011;32289;42.688;23.330;2022-11-04T09:25:09;22.65;;;10.05;;
46561;SDS011;32289;42.688;23.330;2022-11-04T09:28:56;16.80;;;9.13;;
46561;SDS011;32289;42.688;23.330;2022-11-04T09:32:37;18.30;;;9.10;;
46561;SDS011;32289;42.688;23.330;2022-11-04T09:36:18;17.95;;;10.20;;
46561;SDS011;32289;42.688;23.330;2022-11-04T09:39:59;14.80;;;9.23;;
46561;SDS011;32289;42.688;23.330;2022-11-04T09:47:30;17.67;;;9.77;;
46561;SDS011;32289;42.688;23.330;2022-11-04T09:51:15;16.08;;;8.88;;
46561;SDS011;32289;42.688;23.330;2022-11-04T09:59:01;17.08;;;8.50;;
46561;SDS011;32289;42.688;23.330;2022-11-04T10:10:30;20.92;;;9.80;;
46561;SDS011;32289;42.688;23.330;2022-11-04T10:22:03;17.38;;;8.60;;
46561;SDS011;32289;42.688;23.330;2022-11-04T10:30:01;13.93;;;7.43;;
46561;SDS011;32289;42.688;23.330;2022-11-04T10:34:25;16.38;;;6.72;;
46561;SDS011;32289;42.688;23.330;2022-11-04T10:42:08;13.48;;;6.93;;
46561;SDS011;32289;42.688;23.330;2022-11-04T10:46:06;11.50;;;7.28;;
46561;SDS011;32289;42.688;23.330;2022-11-04T10:53:59;15.52;;;7.43;;
46561;SDS011;32289;42.688;23.330;2022-11-04T10:57:41;12.00;;;6.22;;
46561;SDS011;32289;42.688;23.330;2022-11-04T11:01:29;10.43;;;6.38;;
46561;SDS011;32289;42.688;23.330;2022-11-04T11:08:54;10.13;;;6.20;;
46561;SDS011;32289;42.688;23.330;2022-11-04T11:12:38;13.52;;;7.28;;
46561;SDS011;32289;42.688;23.330;2022-11-04T11:16:26;13.55;;;6.75;;
46561;SDS011;32289;42.688;23.330;2022-11-04T11:23:55;13.68;;;7.38;;
46561;SDS011;32289;42.688;23.330;2022-11-04T11:27:53;12.20;;;6.85;;
46561;SDS011;32289;42.688;23.330;2022-11-04T11:31:35;18.95;;;9.57;;
46561;SDS011;32289;42.688;23.330;2022-11-04T11:35:18;12.68;;;6.07;;
46561;SDS011;32289;42.688;23.330;2022-11-04T11:42:58;10.68;;;6.50;;
46561;SDS011;32289;42.688;23.330;2022-11-04T11:46:48;12.57;;;6.25;;
46561;SDS011;32289;42.688;23.330;2022-11-04T11:50:33;16.05;;;6.20;;
46561;SDS011;32289;42.688;23.330;2022-11-04T11:54:15;10.40;;;5.70;;
46561;SDS011;32289;42.688;23.330;2022-11-04T12:02:28;10.55;;;5.40;;
46561;SDS011;32289;42.688;23.330;2022-11-04T12:06:31;12.80;;;6.00;;
46561;SDS011;32289;42.688;23.330;2022-11-04T12:14:39;12.68;;;6.07;;
46561;SDS011;32289;42.688;23.330;2022-11-04T12:47:12;12.98;;;5.70;;
46561;SDS011;32289;42.688;23.330;2022-11-04T12:55:04;8.32;;;4.97;;
46561;SDS011;32289;42.688;23.330;2022-11-04T13:02:59;13.68;;;5.95;;
46561;SDS011;32289;42.688;23.330;2022-11-04T13:06:53;10.65;;;5.57;;
46561;SDS011;32289;42.688;23.330;2022-11-04T13:15:04;16.08;;;5.53;;
46561;SDS011;32289;42.688;23.330;2022-11-04T13:18:47;12.73;;;5.80;;
46561;SDS011;32289;42.688;23.330;2022-11-04T13:22:31;14.63;;;5.32;;
46561;SDS011;32289;42.688;23.330;2022-11-04T13:26:15;14.20;;;6.05;;
46561;SDS011;32289;42.688;23.330;2022-11-04T13:38:27;14.07;;;5.82;;
46561;SDS011;32289;42.688;23.330;2022-11-04T13:45:56;12.60;;;5.93;;
46561;SDS011;32289;42.688;23.330;2022-11-04T13:49:37;13.15;;;6.10;;
46561;SDS011;32289;42.688;23.330;2022-11-04T13:53:18;10.73;;;5.53;;
46561;SDS011;32289;42.688;23.330;2022-11-04T13:57:02;14.90;;;5.55;;
46561;SDS011;32289;42.688;23.330;2022-11-04T14:01:01;14.70;;;5.68;;
46561;SDS011;32289;42.688;23.330;2022-11-04T14:09:23;10.95;;;5.05;;
46561;SDS011;32289;42.688;23.330;2022-11-04T14:21:19;12.45;;;5.50;;
46561;SDS011;32289;42.688;23.330;2022-11-04T14:25:19;17.95;;;6.80;;
46561;SDS011;32289;42.688;23.330;2022-11-04T14:29:24;12.02;;;6.40;;
46561;SDS011;32289;42.688;23.330;2022-11-04T14:33:07;19.77;;;6.95;;
46561;SDS011;32289;42.688;23.330;2022-11-04T14:37:04;12.80;;;5.75;;
46561;SDS011;32289;42.688;23.330;2022-11-04T14:44:59;16.55;;;6.82;;
46561;SDS011;32289;42.688;23.330;2022-11-04T14:48:41;16.38;;;6.32;;
46561;SDS011;32289;42.688;23.330;2022-11-04T14:52:35;12.48;;;6.47;;
46561;SDS011;32289;42.688;23.330;2022-11-04T14:56:20;15.48;;;6.88;;
46561;SDS011;32289;42.688;23.330;2022-11-04T15:07:45;14.75;;;7.57;;
46561;SDS011;32289;42.688;23.330;2022-11-04T15:11:26;15.77;;;7.43;;
46561;SDS011;32289;42.688;23.330;2022-11-04T15:15:38;14.20;;;7.50;;
46561;SDS011;32289;42.688;23.330;2022-11-04T15:19:28;15.82;;;7.57;;
46561;SDS011;32289;42.688;23.330;2022-11-04T15:23:12;14.02;;;6.88;;
46561;SDS011;32289;42.688;23.330;2022-11-04T15:27:15;18.30;;;7.78;;
46561;SDS011;32289;42.688;23.330;2022-11-04T15:31:05;19.10;;;7.70;;
46561;SDS011;32289;42.688;23.330;2022-11-04T15:34:55;14.00;;;7.47;;
46561;SDS011;32289;42.688;23.330;2022-11-04T15:38:36;16.48;;;8.05;;
46561;SDS011;32289;42.688;23.330;2022-11-04T15:42:22;14.68;;;6.43;;
46561;SDS011;32289;42.688;23.330;2022-11-04T15:46:22;13.65;;;7.03;;
46561;SDS011;32289;42.688;23.330;2022-11-04T15:50:14;19.02;;;9.20;;
46561;SDS011;32289;42.688;23.330;2022-11-04T15:58:08;25.70;;;9.60;;
46561;SDS011;32289;42.688;23.330;2022-11-04T16:01:52;18.77;;;8.05;;
46561;SDS011;32289;42.688;23.330;2022-11-04T16:05:34;19.38;;;7.57;;
46561;SDS011;32289;42.688;23.330;2022-11-04T16:09:19;20.05;;;8.43;;
46561;SDS011;32289;42.688;23.330;2022-11-04T16:16:57;16.77;;;8.15;;
46561;SDS011;32289;42.688;23.330;2022-11-04T16:20:37;18.73;;;8.35;;
46561;SDS011;32289;42.688;23.330;2022-11-04T16:24:24;15.98;;;6.85;;
46561;SDS011;32289;42.688;23.330;2022-11-04T16:28:20;17.65;;;8.77;;
46561;SDS011;32289;42.688;23.330;2022-11-04T16:32:18;15.68;;;7.07;;
46561;SDS011;32289;42.688;23.330;2022-11-04T16:36:09;16.83;;;8.13;;
46561;SDS011;32289;42.688;23.330;2022-11-04T16:39:53;16.48;;;7.53;;
46561;SDS011;32289;42.688;23.330;2022-11-04T16:43:34;16.65;;;8.60;;
46561;SDS011;32289;42.688;23.330;2022-11-04T16:47:21;16.08;;;7.15;;
46561;SDS011;32289;42.688;23.330;2022-11-04T16:51:04;15.40;;;7.88;;
46561;SDS011;32289;42.688;23.330;2022-11-04T16:54:45;13.80;;;7.47;;
46561;SDS011;32289;42.688;23.330;2022-11-04T16:58:27;14.18;;;6.97;;
46561;SDS011;32289;42.688;23.330;2022-11-04T17:02:13;17.50;;;6.68;;
46561;SDS011;32289;42.688;23.330;2022-11-04T17:06:04;16.33;;;7.45;;
46561;SDS011;32289;42.688;23.330;2022-11-04T17:09:45;13.98;;;7.05;;
46561;SDS011;32289;42.688;23.330;2022-11-04T17:13:26;16.85;;;6.82;;
46561;SDS011;32289;42.688;23.330;2022-11-04T17:17:08;14.43;;;6.70;;
46561;SDS011;32289;42.688;23.330;2022-11-04T17:20:50;14.93;;;6.15;;
46561;SDS011;32289;42.688;23.330;2022-11-04T17:24:33;11.57;;;5.63;;
46561;SDS011;32289;42.688;23.330;2022-11-04T17:28:14;14.85;;;6.63;;
46561;SDS011;32289;42.688;23.330;2022-11-04T17:31:55;17.60;;;7.45;;
46561;SDS011;32289;42.688;23.330;2022-11-04T17:35:36;14.55;;;6.00;;
46561;SDS011;32289;42.688;23.330;2022-11-04T17:39:17;15.10;;;7.10;;
46561;SDS011;32289;42.688;23.330;2022-11-04T17:42:58;12.32;;;6.10;;
46561;SDS011;32289;42.688;23.330;2022-11-04T17:46:57;14.80;;;6.37;;
46561;SDS011;32289;42.688;23.330;2022-11-04T17:50:39;10.60;;;5.90;;
46561;SDS011;32289;42.688;23.330;2022-11-04T17:54:22;17.52;;;6.82;;
46561;SDS011;32289;42.688;23.330;2022-11-04T17:58:03;14.52;;;6.43;;
46561;SDS011;32289;42.688;23.330;2022-11-04T18:01:44;17.95;;;7.65;;
46561;SDS011;32289;42.688;23.330;2022-11-04T18:05:25;15.07;;;7.65;;
46561;SDS011;32289;42.688;23.330;2022-11-04T18:09:06;17.05;;;7.45;;
46561;SDS011;32289;42.688;23.330;2022-11-04T18:12:48;18.15;;;7.88;;
46561;SDS011;32289;42.688;23.330;2022-11-04T18:16:29;13.48;;;7.10;;
46561;SDS011;32289;42.688;23.330;2022-11-04T18:20:11;15.88;;;7.47;;
46561;SDS011;32289;42.688;23.330;2022-11-04T18:23:54;17.60;;;6.28;;
46561;SDS011;32289;42.688;23.330;2022-11-04T18:27:35;27.75;;;7.97;;
46561;SDS011;32289;42.688;23.330;2022-11-04T18:31:26;18.40;;;7.90;;
46561;SDS011;32289;42.688;23.330;2022-11-04T18:35:08;23.15;;;9.10;;
46561;SDS011;32289;42.688;23.330;2022-11-04T18:38:49;16.27;;;6.75;;
46561;SDS011;32289;42.688;23.330;2022-11-04T18:42:29;17.38;;;6.15;;
46561;SDS011;32289;42.688;23.330;2022-11-04T18:46:11;12.95;;;7.00;;
46561;SDS011;32289;42.688;23.330;2022-11-04T18:49:53;10.02;;;5.40;;
46561;SDS011;32289;42.688;23.330;2022-11-04T18:53:35;15.35;;;6.65;;
46561;SDS011;32289;42.688;23.330;2022-11-04T18:57:16;18.63;;;7.07;;
46561;SDS011;32289;42.688;23.330;2022-11-04T19:00:57;12.55;;;6.78;;
46561;SDS011;32289;42.688;23.330;2022-11-04T19:04:38;12.65;;;7.00;;
46561;SDS011;32289;42.688;23.330;2022-11-04T19:08:18;17.73;;;9.05;;
46561;SDS011;32289;42.688;23.330;2022-11-04T19:11:59;13.38;;;7.00;;
46561;SDS011;32289;42.688;23.330;2022-11-04T19:16:03;15.90;;;7.18;;
46561;SDS011;32289;42.688;23.330;2022-11-04T19:19:45;15.55;;;6.70;;
46561;SDS011;32289;42.688;23.330;2022-11-04T19:23:26;19.58;;;7.10;;
46561;SDS011;32289;42.688;23.330;2022-11-04T19:27:09;27.50;;;11.82;;
46561;SDS011;32289;42.688;23.330;2022-11-04T19:31:00;20.45;;;8.32;;
46561;SDS011;32289;42.688;23.330;2022-11-04T19:34:42;19.10;;;8.45;;
46561;SDS011;32289;42.688;23.330;2022-11-04T19:38:23;22.17;;;8.05;;
46561;SDS011;32289;42.688;23.330;2022-11-04T19:42:04;27.88;;;8.57;;
46561;SDS011;32289;42.688;23.330;2022-11-04T19:49:45;23.38;;;8.88;;
46561;SDS011;32289;42.688;23.330;2022-11-04T19:53:25;18.15;;;7.85;;
46561;SDS011;32289;42.688;23.330;2022-11-04T19:57:06;19.02;;;8.98;;
46561;SDS011;32289;42.688;23.330;2022-11-04T20:00:47;20.73;;;9.27;;
46561;SDS011;32289;42.688;23.330;2022-11-04T20:04:28;21.67;;;9.85;;
46561;SDS011;32289;42.688;23.330;2022-11-04T20:08:09;22.85;;;11.05;;
46561;SDS011;32289;42.688;23.330;2022-11-04T20:11:50;20.00;;;8.40;;
46561;SDS011;32289;42.688;23.330;2022-11-04T20:15:49;18.93;;;10.57;;
46561;SDS011;32289;42.688;23.330;2022-11-04T20:19:31;20.05;;;8.77;;
46561;SDS011;32289;42.688;23.330;2022-11-04T20:23:11;20.63;;;9.23;;
46561;SDS011;32289;42.688;23.330;2022-11-04T20:26:52;14.80;;;7.25;;
46561;SDS011;32289;42.688;23.330;2022-11-04T20:30:36;22.83;;;8.07;;
46561;SDS011;32289;42.688;23.330;2022-11-04T20:34:17;17.88;;;8.20;;
46561;SDS011;32289;42.688;23.330;2022-11-04T20:37:59;16.30;;;8.43;;
46561;SDS011;32289;42.688;23.330;2022-11-04T20:41:40;17.38;;;7.22;;
46561;SDS011;32289;42.688;23.330;2022-11-04T20:45:21;18.80;;;7.32;;
46561;SDS011;32289;42.688;23.330;2022-11-04T20:49:01;17.25;;;7.93;;
46561;SDS011;32289;42.688;23.330;2022-11-04T20:52:42;19.00;;;8.18;;
46561;SDS011;32289;42.688;23.330;2022-11-04T20:56:23;34.15;;;12.45;;
46561;SDS011;32289;42.688;23.330;2022-11-04T21:00:05;25.35;;;9.77;;
46561;SDS011;32289;42.688;23.330;2022-11-04T21:03:47;17.98;;;10.05;;
46561;SDS011;32289;42.688;23.330;2022-11-04T21:07:28;20.58;;;9.13;;
46561;SDS011;32289;42.688;23.330;2022-11-04T21:11:09;25.92;;;9.32;;
46561;SDS011;32289;42.688;23.330;2022-11-04T21:14:51;24.00;;;10.07;;
46561;SDS011;32289;42.688;23.330;2022-11-04T21:18:31;22.73;;;10.15;;
46561;SDS011;32289;42.688;23.330;2022-11-04T21:22:12;23.42;;;10.93;;
46561;SDS011;32289;42.688;23.330;2022-11-04T21:25:54;20.27;;;9.90;;
46561;SDS011;32289;42.688;23.330;2022-11-04T21:29:43;24.80;;;10.63;;
46561;SDS011;32289;42.688;23.330;2022-11-04T21:33:24;22.98;;;8.73;;
46561;SDS011;32289;42.688;23.330;2022-11-04T21:37:04;27.08;;;11.32;;
46561;SDS011;32289;42.688;23.330;2022-11-04T21:40:45;17.23;;;8.80;;
46561;SDS011;32289;42.688;23.330;2022-11-04T21:44:26;18.83;;;9.70;;
46561;SDS011;32289;42.688;23.330;2022-11-04T21:48:07;27.02;;;11.65;;
46561;SDS011;32289;42.688;23.330;2022-11-04T21:51:47;27.25;;;9.48;;
46561;SDS011;32289;42.688;23.330;2022-11-04T21:55:28;23.70;;;10.15;;
46561;SDS011;32289;42.688;23.330;2022-11-04T21:59:09;21.23;;;8.85;;
46561;SDS011;32289;42.688;23.330;2022-11-04T22:02:50;17.98;;;9.02;;
46561;SDS011;32289;42.688;23.330;2022-11-04T22:06:31;23.50;;;9.38;;
46561;SDS011;32289;42.688;23.330;2022-11-04T22:10:12;24.83;;;8.98;;
46561;SDS011;32289;42.688;23.330;2022-11-04T22:13:54;26.95;;;10.80;;
46561;SDS011;32289;42.688;23.330;2022-11-04T22:17:44;24.27;;;10.93;;
46561;SDS011;32289;42.688;23.330;2022-11-04T22:21:26;24.90;;;11.30;;
46561;SDS011;32289;42.688;23.330;2022-11-04T22:25:08;28.20;;;12.05;;
46561;SDS011;32289;42.688;23.330;2022-11-04T22:28:51;29.95;;;10.77;;
46561;SDS011;32289;42.688;23.330;2022-11-04T22:32:32;24.95;;;10.48;;
46561;SDS011;32289;42.688;23.330;2022-11-04T22:36:13;21.60;;;10.85;;
46561;SDS011;32289;42.688;23.330;2022-11-04T22:39:54;23.50;;;10.10;;
46561;SDS011;32289;42.688;23.330;2022-11-04T22:43:34;24.73;;;11.25;;
46561;SDS011;32289;42.688;23.330;2022-11-04T22:47:15;21.55;;;9.88;;
46561;SDS011;32289;42.688;23.330;2022-11-04T22:50:56;24.27;;;10.80;;
46561;SDS011;32289;42.688;23.330;2022-11-04T22:54:37;25.50;;;9.40;;
46561;SDS011;32289;42.688;23.330;2022-11-04T22:58:18;27.40;;;10.35;;
46561;SDS011;32289;42.688;23.330;2022-11-04T23:01:59;20.45;;;10.98;;
46561;SDS011;32289;42.688;23.330;2022-11-04T23:05:40;22.08;;;9.60;;
46561;SDS011;32289;42.688;23.330;2022-11-04T23:09:20;22.10;;;8.75;;
46561;SDS011;32289;42.688;23.330;2022-11-04T23:13:01;19.50;;;9.65;;
46561;SDS011;32289;42.688;23.330;2022-11-04T23:17:00;19.47;;;10.23;;
46561;SDS011;32289;42.688;23.330;2022-11-04T23:21:00;26.17;;;9.57;;
46561;SDS011;32289;42.688;23.330;2022-11-04T23:24:59;18.45;;;9.45;;
46561;SDS011;32289;42.688;23.330;2022-11-04T23:28:45;30.45;;;11.13;;
46561;SDS011;32289;42.688;23.330;2022-11-04T23:32:44;23.27;;;10.23;;
46561;SDS011;32289;42.688;23.330;2022-11-04T23:36:26;26.77;;;9.55;;
46561;SDS011;32289;42.688;23.330;2022-11-04T23:40:26;20.17;;;9.75;;
46561;SDS011;32289;42.688;23.330;2022-11-04T23:44:07;16.48;;;9.30;;
46561;SDS011;32289;42.688;23.330;2022-11-04T23:48:11;27.83;;;10.80;;
46561;SDS011;32289;42.688;23.330;2022-11-04T23:52:11;24.98;;;9.82;;
46561;SDS011;32289;42.688;23.330;2022-11-04T23:56:10;27.40;;;10.27;;
